Time;durP1;ratioP1;P1;durP2;ratioP2;P2;SDS_P1;SDS_P2;PMS_P1;PMS_P2;Temp;Humidity;BMP_temperature;BMP_pressure;BME280_temperature;BME280_humidity;BME280_pressure;Samples;Min_cycle;Max_cycle;Signal;HPM_P1;HPM_P2
2021/11/18 00:02:38;;;;;;;43.00;11.68;;;;;;;;;;6229640;28;20525;-82
2021/11/18 00:05:40;;;;;;;40.90;10.10;;;;;;;;;;6232409;28;20071;-81
2021/11/18 00:08:42;;;;;;;64.53;9.30;;;;;;;;;;6239285;28;20061;-81
2021/11/18 00:11:44;;;;;;;67.57;10.85;;;;;;;;;;6238976;28;20136;-82
2021/11/18 00:14:46;;;;;;;55.95;10.93;;;;;;;;;;6219318;28;20045;-81
2021/11/18 00:17:47;;;;;;;62.55;12.55;;;;;;;;;;6220278;28;20049;-81
2021/11/18 00:20:51;;;;;;;49.78;11.32;;;;;;;;;;6237413;28;20046;-81
2021/11/18 00:23:56;;;;;;;63.38;12.98;;;;;;;;;;6235858;28;20061;-81
2021/11/18 00:26:59;;;;;;;31.02;12.55;;;;;;;;;;6217516;28;20045;-81
2021/11/18 00:30:05;;;;;;;39.90;11.85;;;;;;;;;;6213162;28;20053;-81
2021/11/18 00:33:07;;;;;;;42.30;11.13;;;;;;;;;;6213518;28;20076;-81
2021/11/18 00:36:10;;;;;;;28.98;10.88;;;;;;;;;;6236863;28;20084;-81
2021/11/18 00:39:12;;;;;;;60.55;12.00;;;;;;;;;;6220992;28;20101;-81
2021/11/18 00:42:14;;;;;;;44.03;11.38;;;;;;;;;;6214348;28;20069;-82
2021/11/18 00:45:17;;;;;;;39.05;9.73;;;;;;;;;;6218638;28;20079;-80
2021/11/18 00:48:19;;;;;;;73.03;12.52;;;;;;;;;;6239456;28;20136;-81
2021/11/18 00:51:21;;;;;;;46.70;11.50;;;;;;;;;;6219497;28;20083;-83
2021/11/18 00:54:24;;;;;;;34.85;11.50;;;;;;;;;;6219923;28;20530;-81
2021/11/18 00:57:27;;;;;;;30.30;10.73;;;;;;;;;;6236677;28;20045;-81
2021/11/18 01:00:33;;;;;;;33.20;11.00;;;;;;;;;;6220002;28;20052;-81
2021/11/18 01:03:35;;;;;;;35.75;11.80;;;;;;;;;;6219515;28;20053;-81
2021/11/18 01:06:37;;;;;;;30.38;10.77;;;;;;;;;;6236679;28;20037;-81
2021/11/18 01:09:39;;;;;;;31.45;10.82;;;;;;;;;;6224385;28;20033;-80
2021/11/18 01:12:41;;;;;;;31.90;11.35;;;;;;;;;;6223909;28;20053;-81
2021/11/18 01:15:44;;;;;;;36.78;11.55;;;;;;;;;;6223478;28;20052;-81
2021/11/18 01:18:47;;;;;;;32.05;11.63;;;;;;;;;;6224139;28;20046;-80
2021/11/18 01:21:50;;;;;;;32.28;10.80;;;;;;;;;;6239957;28;20049;-81
2021/11/18 01:24:53;;;;;;;27.52;10.45;;;;;;;;;;6223756;28;20048;-81
2021/11/18 01:27:59;;;;;;;48.80;11.50;;;;;;;;;;6224932;28;20052;-80
2021/11/18 01:31:03;;;;;;;49.83;10.68;;;;;;;;;;6206604;28;20048;-81
2021/11/18 01:34:05;;;;;;;30.83;8.97;;;;;;;;;;6240005;28;20044;-80
2021/11/18 01:37:09;;;;;;;31.42;10.65;;;;;;;;;;6223071;28;20835;-80
2021/11/18 01:40:18;;;;;;;27.08;9.82;;;;;;;;;;6223932;28;20046;-81
2021/11/18 01:43:24;;;;;;;24.95;8.77;;;;;;;;;;6238678;28;20414;-81
2021/11/18 01:46:30;;;;;;;29.23;10.52;;;;;;;;;;6233849;28;20128;-80
2021/11/18 01:49:32;;;;;;;28.70;9.73;;;;;;;;;;6200633;28;20579;-81
2021/11/18 01:52:34;;;;;;;26.85;10.43;;;;;;;;;;6210494;28;20111;-80
2021/11/18 01:55:38;;;;;;;30.48;10.43;;;;;;;;;;6233013;28;20041;-81
2021/11/18 01:58:41;;;;;;;31.50;9.13;;;;;;;;;;6216474;28;20041;-81
2021/11/18 02:01:51;;;;;;;29.35;9.68;;;;;;;;;;6230802;28;20157;-81
2021/11/18 02:05:23;;;;;;;27.33;9.95;;;;;;;;;;6220378;28;20499;-81
2021/11/18 02:08:29;;;;;;;25.17;9.63;;;;;;;;;;6236506;28;20098;-80
2021/11/18 02:11:52;;;;;;;25.83;9.52;;;;;;;;;;6237194;28;20046;-81
2021/11/18 02:14:56;;;;;;;30.33;9.48;;;;;;;;;;6235591;28;20184;-81
2021/11/18 02:18:00;;;;;;;31.00;9.47;;;;;;;;;;6236563;28;20132;-80
2021/11/18 02:21:11;;;;;;;36.53;12.93;;;;;;;;;;6234611;28;20042;-81
2021/11/18 02:24:21;;;;;;;50.47;14.80;;;;;;;;;;6219115;28;20045;-80
2021/11/18 02:27:29;;;;;;;33.85;10.98;;;;;;;;;;6236731;28;20100;-81
2021/11/18 02:30:38;;;;;;;33.10;9.35;;;;;;;;;;6218297;28;20514;-81
2021/11/18 02:33:41;;;;;;;26.77;9.65;;;;;;;;;;6219246;28;20057;-80
2021/11/18 02:36:44;;;;;;;25.10;9.93;;;;;;;;;;6225937;28;20462;-81
2021/11/18 02:39:46;;;;;;;23.00;9.18;;;;;;;;;;6221523;28;20108;-81
2021/11/18 02:42:48;;;;;;;22.98;8.50;;;;;;;;;;6219256;28;20057;-81
2021/11/18 02:45:50;;;;;;;26.20;9.45;;;;;;;;;;6226929;28;20056;-81
2021/11/18 02:48:53;;;;;;;27.90;9.55;;;;;;;;;;6227618;28;20045;-81
2021/11/18 02:51:58;;;;;;;30.25;9.93;;;;;;;;;;6240610;28;20045;-81
2021/11/18 02:55:08;;;;;;;51.72;21.05;;;;;;;;;;6244711;28;20414;-81
2021/11/18 02:58:10;;;;;;;29.67;11.23;;;;;;;;;;6226495;28;20049;-81
2021/11/18 03:01:15;;;;;;;;;;;;;;;;;;6226932;28;20049;-81
2021/11/18 03:04:17;;;;;;;26.55;8.18;;;;;;;;;;6242689;28;19921;-80
2021/11/18 03:07:19;;;;;;;21.23;8.50;;;;;;;;;;6225554;28;20172;-81
2021/11/18 03:10:22;;;;;;;24.98;8.70;;;;;;;;;;6225994;28;20380;-81
2021/11/18 03:13:26;;;;;;;24.58;9.25;;;;;;;;;;6202939;28;20099;-81
2021/11/18 03:16:32;;;;;;;37.70;13.80;;;;;;;;;;6220315;28;20053;-81
2021/11/18 03:19:35;;;;;;;28.67;11.85;;;;;;;;;;6220246;28;20058;-81
2021/11/18 03:22:41;;;;;;;31.38;10.98;;;;;;;;;;6225107;28;20088;-81
2021/11/18 03:25:43;;;;;;;25.38;9.60;;;;;;;;;;6246831;28;20049;-81
2021/11/18 03:28:52;;;;;;;23.00;9.25;;;;;;;;;;6217689;28;20050;-81
2021/11/18 03:31:56;;;;;;;26.15;9.55;;;;;;;;;;6199232;28;20056;-81
2021/11/18 03:34:58;;;;;;;26.60;9.80;;;;;;;;;;6211960;28;20042;-81
2021/11/18 03:38:02;;;;;;;25.67;9.13;;;;;;;;;;6225414;28;20519;-81
2021/11/18 03:41:06;;;;;;;26.03;9.93;;;;;;;;;;6225232;28;20041;-79
2021/11/18 03:44:15;;;;;;;28.50;10.07;;;;;;;;;;6225715;28;20460;-80
2021/11/18 03:47:17;;;;;;;31.38;11.05;;;;;;;;;;6226150;28;20769;-80
2021/11/18 03:50:21;;;;;;;25.15;10.05;;;;;;;;;;6218070;28;20042;-80
2021/11/18 03:53:23;;;;;;;29.73;10.93;;;;;;;;;;6241423;28;20049;-80
2021/11/18 03:56:29;;;;;;;23.40;9.48;;;;;;;;;;6225311;28;20038;-80
2021/11/18 03:59:34;;;;;;;23.20;9.85;;;;;;;;;;6231081;28;20498;-80
2021/11/18 04:02:41;;;;;;;26.42;10.20;;;;;;;;;;6214503;28;20046;-81
2021/11/18 04:05:46;;;;;;;29.83;10.85;;;;;;;;;;6226629;28;20057;-82
2021/11/18 04:08:48;;;;;;;27.05;9.82;;;;;;;;;;6240873;28;20087;-82
2021/11/18 04:11:52;;;;;;;29.90;10.65;;;;;;;;;;6223373;28;20045;-81
2021/11/18 04:14:54;;;;;;;26.73;10.23;;;;;;;;;;6238442;28;20045;-81
2021/11/18 04:17:56;;;;;;;25.58;9.20;;;;;;;;;;6239988;28;20034;-80
2021/11/18 04:21:04;;;;;;;27.17;9.52;;;;;;;;;;6221486;28;20047;-80
2021/11/18 04:24:09;;;;;;;26.33;9.75;;;;;;;;;;6254544;28;20396;-81
2021/11/18 04:27:12;;;;;;;20.88;8.32;;;;;;;;;;6204749;28;20045;-80
2021/11/18 04:30:18;;;;;;;24.75;9.52;;;;;;;;;;6213715;28;20038;-81
2021/11/18 04:33:36;;;;;;;23.25;9.05;;;;;;;;;;6204963;28;20530;-80
2021/11/18 04:36:41;;;;;;;22.42;9.13;;;;;;;;;;6211306;28;20041;-81
2021/11/18 04:39:43;;;;;;;22.55;8.80;;;;;;;;;;6224577;28;20534;-80
2021/11/18 04:42:45;;;;;;;26.70;9.70;;;;;;;;;;6219120;28;20054;-81
2021/11/18 04:45:54;;;;;;;22.90;9.35;;;;;;;;;;6222465;28;20037;-80
2021/11/18 04:48:57;;;;;;;24.50;10.00;;;;;;;;;;6239985;28;20050;-81
2021/11/18 04:52:00;;;;;;;27.85;9.63;;;;;;;;;;6221991;28;20046;-81
2021/11/18 04:55:03;;;;;;;21.50;7.97;;;;;;;;;;6239501;28;20429;-81
2021/11/18 04:58:07;;;;;;;23.52;8.65;;;;;;;;;;6240492;28;20049;-81
2021/11/18 05:01:12;;;;;;;22.95;8.98;;;;;;;;;;6217789;28;20507;-80
2021/11/18 05:04:17;;;;;;;21.08;8.57;;;;;;;;;;6213315;28;20042;-80
2021/11/18 05:07:20;;;;;;;24.35;9.30;;;;;;;;;;6216187;28;20111;-79
2021/11/18 05:10:23;;;;;;;23.85;9.93;;;;;;;;;;6215991;28;20073;-80
2021/11/18 05:13:28;;;;;;;24.52;9.02;;;;;;;;;;6220375;28;20056;-81
2021/11/18 05:16:34;;;;;;;26.02;8.73;;;;;;;;;;6222914;28;20041;-80
2021/11/18 05:19:36;;;;;;;24.05;9.50;;;;;;;;;;6239887;28;20176;-83
2021/11/18 05:22:38;;;;;;;26.75;9.85;;;;;;;;;;6221123;28;20044;-81
2021/11/18 05:25:45;;;;;;;21.80;9.20;;;;;;;;;;6199302;28;20125;-81
2021/11/18 05:28:47;;;;;;;22.27;9.35;;;;;;;;;;6203144;28;20045;-80
2021/11/18 05:31:48;;;;;;;19.38;8.55;;;;;;;;;;6232267;28;20125;-80
2021/11/18 05:35:14;;;;;;;19.55;8.43;;;;;;;;;;6215289;28;20595;-81
2021/11/18 05:38:15;;;;;;;31.27;9.95;;;;;;;;;;6218081;28;20249;-81
2021/11/18 05:41:22;;;;;;;19.13;8.07;;;;;;;;;;6219883;28;20454;-81
2021/11/18 05:44:24;;;;;;;23.83;9.18;;;;;;;;;;6240034;28;20494;-82
2021/11/18 05:47:27;;;;;;;26.83;10.43;;;;;;;;;;6210810;28;20619;-80
2021/11/18 05:50:29;;;;;;;32.35;12.00;;;;;;;;;;6223190;28;20416;-81
2021/11/18 05:53:38;;;;;;;39.40;15.05;;;;;;;;;;6244034;28;20096;-81
2021/11/18 05:56:40;;;;;;;26.15;10.52;;;;;;;;;;6229026;28;20052;-81
2021/11/18 05:59:42;;;;;;;25.13;10.27;;;;;;;;;;6225204;28;20054;-81
2021/11/18 06:02:45;;;;;;;26.02;9.82;;;;;;;;;;6241693;28;20049;-81
2021/11/18 06:05:48;;;;;;;28.70;9.35;;;;;;;;;;6224677;28;20092;-81
2021/11/18 06:08:50;;;;;;;24.67;8.95;;;;;;;;;;6225980;28;20045;-81
2021/11/18 06:11:52;;;;;;;31.98;11.18;;;;;;;;;;6226799;28;20053;-80
2021/11/18 06:14:54;;;;;;;35.13;13.87;;;;;;;;;;6202561;28;20129;-79
2021/11/18 06:17:56;;;;;;;36.72;14.35;;;;;;;;;;6225541;28;20535;-80
2021/11/18 06:20:59;;;;;;;29.63;12.97;;;;;;;;;;6223676;28;20105;-79
2021/11/18 06:24:02;;;;;;;35.10;13.93;;;;;;;;;;6225071;28;20042;-79
2021/11/18 06:27:05;;;;;;;32.28;12.48;;;;;;;;;;6223861;28;20047;-79
2021/11/18 06:30:30;;;;;;;29.67;12.23;;;;;;;;;;6204554;28;20415;-79
2021/11/18 06:33:34;;;;;;;43.03;19.15;;;;;;;;;;6213792;28;20129;-79
2021/11/18 06:36:36;;;;;;;38.90;14.98;;;;;;;;;;6221195;28;20038;-80
2021/11/18 06:39:39;;;;;;;34.17;15.45;;;;;;;;;;6240384;28;20061;-81
2021/11/18 06:42:43;;;;;;;32.45;13.63;;;;;;;;;;6240249;28;20053;-80
2021/11/18 06:45:57;;;;;;;32.47;13.75;;;;;;;;;;6238582;28;20754;-78
2021/11/18 06:49:03;;;;;;;35.67;13.55;;;;;;;;;;6222257;28;20402;-79
2021/11/18 06:52:08;;;;;;;28.38;12.32;;;;;;;;;;6237764;28;20049;-79
2021/11/18 06:55:11;;;;;;;37.05;13.65;;;;;;;;;;6241220;28;20121;-80
2021/11/18 06:58:13;;;;;;;35.55;12.52;;;;;;;;;;6241077;28;20049;-78
2021/11/18 07:01:16;;;;;;;34.85;13.75;;;;;;;;;;6198433;28;20066;-80
2021/11/18 07:04:18;;;;;;;35.67;13.02;;;;;;;;;;6200337;28;20181;-79
2021/11/18 07:07:20;;;;;;;30.52;13.48;;;;;;;;;;6220979;28;20052;-81
2021/11/18 07:10:24;;;;;;;34.72;13.68;;;;;;;;;;6240674;28;20048;-79
2021/11/18 07:13:34;;;;;;;46.22;14.68;;;;;;;;;;6220945;28;20048;-80
2021/11/18 07:16:40;;;;;;;40.08;13.13;;;;;;;;;;6222202;28;20045;-80
2021/11/18 07:19:42;;;;;;;32.95;13.52;;;;;;;;;;6241927;28;20176;-80
2021/11/18 07:22:44;;;;;;;43.35;17.33;;;;;;;;;;6212483;28;20068;-80
2021/11/18 07:25:56;;;;;;;66.63;25.05;;;;;;;;;;6216947;28;20399;-79
2021/11/18 07:29:00;;;;;;;63.22;22.58;;;;;;;;;;6230309;28;20044;-79
2021/11/18 07:32:03;;;;;;;65.20;27.13;;;;;;;;;;6248271;28;20045;-80
2021/11/18 07:35:06;;;;;;;55.80;19.85;;;;;;;;;;6242305;28;20420;-79
2021/11/18 07:38:07;;;;;;;48.53;16.80;;;;;;;;;;6225396;28;20033;-79
2021/11/18 07:41:13;;;;;;;39.45;15.98;;;;;;;;;;6227984;28;20530;-79
2021/11/18 07:44:24;;;;;;;36.08;13.48;;;;;;;;;;6237847;28;20045;-81
2021/11/18 07:47:57;;;;;;;24.20;11.95;;;;;;;;;;6240282;28;20049;-79
2021/11/18 07:51:02;;;;;;;27.92;10.63;;;;;;;;;;6244629;28;20505;-80
2021/11/18 07:54:08;;;;;;;26.75;10.25;;;;;;;;;;6227105;28;20038;-80
2021/11/18 07:57:09;;;;;;;;;;;;;;;;;;6246149;28;20053;-79
2021/11/18 08:00:14;;;;;;;28.27;10.38;;;;;;;;;;6227000;28;20078;-81
2021/11/18 08:03:30;;;;;;;32.47;11.10;;;;;;;;;;6228141;28;20042;-80
2021/11/18 08:06:50;;;;;;;27.25;10.18;;;;;;;;;;6243633;28;20053;-79
2021/11/18 08:09:55;;;;;;;26.23;11.00;;;;;;;;;;6232736;28;20045;-78
2021/11/18 08:12:57;;;;;;;24.65;9.98;;;;;;;;;;6229154;28;20045;-80
2021/11/18 08:15:58;;;;;;;28.40;10.68;;;;;;;;;;6213170;28;20049;-80
2021/11/18 08:19:03;;;;;;;29.13;11.43;;;;;;;;;;6229455;28;20454;-81
2021/11/18 08:22:05;;;;;;;56.97;16.67;;;;;;;;;;6226676;28;20045;-79
2021/11/18 08:25:10;;;;;;;44.10;14.50;;;;;;;;;;6229186;28;20065;-81
2021/11/18 08:28:17;;;;;;;41.00;14.50;;;;;;;;;;6245357;28;20049;-80
2021/11/18 08:31:19;;;;;;;37.63;13.00;;;;;;;;;;6227367;28;20069;-80
2021/11/18 08:34:40;;;;;;;37.58;13.15;;;;;;;;;;6245865;28;20041;-81
2021/11/18 08:37:45;;;;;;;30.50;11.70;;;;;;;;;;6205445;28;20107;-78
2021/11/18 08:40:54;;;;;;;21.98;9.45;;;;;;;;;;6216486;28;20053;-81
2021/11/18 08:43:56;;;;;;;43.05;15.15;;;;;;;;;;6235324;28;20064;-80
2021/11/18 08:46:59;;;;;;;39.13;15.02;;;;;;;;;;6216525;28;20053;-79
2021/11/18 08:50:08;;;;;;;29.77;11.43;;;;;;;;;;6216285;28;20041;-78
2021/11/18 08:53:11;;;;;;;19.88;9.18;;;;;;;;;;6196054;28;20124;-80
2021/11/18 08:56:16;;;;;;;19.40;8.75;;;;;;;;;;6232771;28;20042;-80
2021/11/18 08:59:18;;;;;;;19.17;9.50;;;;;;;;;;6215879;28;20041;-81
2021/11/18 09:02:23;;;;;;;16.63;7.68;;;;;;;;;;6196640;28;20038;-81
2021/11/18 09:05:27;;;;;;;17.92;9.00;;;;;;;;;;6217859;28;20084;-81
2021/11/18 09:08:30;;;;;;;;;;;;;;;;;;6224543;28;20123;-82
2021/11/18 09:11:38;;;;;;;20.35;9.23;;;;;;;;;;6224912;28;19928;-81
2021/11/18 09:14:40;;;;;;;23.50;9.73;;;;;;;;;;6219507;28;20039;-81
2021/11/18 09:17:43;;;;;;;24.27;12.00;;;;;;;;;;6237049;28;20514;-80
2021/11/18 09:20:59;;;;;;;24.38;11.35;;;;;;;;;;6228548;28;20034;-80
2021/11/18 09:24:06;;;;;;;22.52;11.10;;;;;;;;;;6229469;28;20079;-81
2021/11/18 09:27:28;;;;;;;22.60;10.55;;;;;;;;;;6228794;28;20095;-80
2021/11/18 09:30:34;;;;;;;22.00;10.93;;;;;;;;;;6239139;28;20153;-79
2021/11/18 09:33:37;;;;;;;17.70;9.40;;;;;;;;;;6225766;28;20041;-80
2021/11/18 09:36:43;;;;;;;19.23;9.00;;;;;;;;;;6226312;28;20050;-79
2021/11/18 09:39:45;;;;;;;21.08;9.40;;;;;;;;;;6228729;28;20056;-78
2021/11/18 09:43:24;;;;;;;15.63;6.78;;;;;;;;;;6227893;28;20041;-79
2021/11/18 09:47:10;;;;;;;22.00;7.00;;;;;;;;;;6226492;28;20049;-79
2021/11/18 09:50:34;;;;;;;14.55;6.78;;;;;;;;;;6213367;28;20045;-80
2021/11/18 09:54:01;;;;;;;12.20;6.10;;;;;;;;;;6229589;28;20133;-78
2021/11/18 09:57:16;;;;;;;17.65;7.05;;;;;;;;;;6221195;28;20098;-81
2021/11/18 10:00:32;;;;;;;13.90;6.43;;;;;;;;;;6238991;28;20038;-80
2021/11/18 10:04:20;;;;;;;16.08;6.97;;;;;;;;;;6220658;28;20052;-80
2021/11/18 10:07:49;;;;;;;16.63;6.28;;;;;;;;;;6220221;28;20466;-81
2021/11/18 10:11:11;;;;;;;18.65;6.80;;;;;;;;;;6237726;28;20041;-80
2021/11/18 10:14:54;;;;;;;14.45;6.75;;;;;;;;;;6218553;28;20427;-79
2021/11/18 10:18:27;;;;;;;15.43;5.95;;;;;;;;;;6220313;28;20507;-81
2021/11/18 10:21:34;;;;;;;19.25;7.30;;;;;;;;;;6224068;28;20102;-80
2021/11/18 10:24:42;;;;;;;17.80;6.95;;;;;;;;;;6244350;28;20041;-79
2021/11/18 10:27:46;;;;;;;18.02;7.05;;;;;;;;;;6237757;28;20184;-78
2021/11/18 10:31:09;;;;;;;17.20;6.68;;;;;;;;;;6220643;28;20054;-80
2021/11/18 10:34:22;;;;;;;14.37;6.77;;;;;;;;;;6243899;28;20084;-80
2021/11/18 10:37:26;;;;;;;16.95;6.30;;;;;;;;;;6246248;28;20034;-79
2021/11/18 10:40:31;;;;;;;23.08;8.35;;;;;;;;;;6247052;28;20049;-81
2021/11/18 10:43:36;;;;;;;22.45;8.10;;;;;;;;;;6229478;28;20045;-82
2021/11/18 10:46:50;;;;;;;17.25;8.00;;;;;;;;;;6262205;28;20041;-82
2021/11/18 10:50:12;;;;;;;19.92;7.90;;;;;;;;;;6239207;28;20048;-82
2021/11/18 10:53:26;;;;;;;21.90;8.20;;;;;;;;;;6242229;28;20045;-81
2021/11/18 10:56:40;;;;;;;18.23;7.03;;;;;;;;;;6228203;28;20052;-81
2021/11/18 10:59:45;;;;;;;16.27;7.50;;;;;;;;;;6244762;28;20129;-82
2021/11/18 11:02:47;;;;;;;15.02;7.07;;;;;;;;;;6225962;28;20048;-82
2021/11/18 11:06:26;;;;;;;18.83;7.65;;;;;;;;;;6243852;28;20049;-82
2021/11/18 11:09:43;;;;;;;18.15;7.90;;;;;;;;;;6204795;28;20038;-83
2021/11/18 11:12:56;;;;;;;20.10;6.80;;;;;;;;;;6218632;28;20053;-81
2021/11/18 11:16:21;;;;;;;16.88;6.60;;;;;;;;;;6202019;28;20042;-81
2021/11/18 11:19:52;;;;;;;17.17;7.68;;;;;;;;;;6211609;28;20057;-80
2021/11/18 11:23:33;;;;;;;15.10;7.25;;;;;;;;;;6212530;28;20413;-80
2021/11/18 11:27:02;;;;;;;14.30;6.65;;;;;;;;;;6235584;28;20070;-83
2021/11/18 11:30:33;;;;;;;15.23;7.05;;;;;;;;;;6242356;28;20037;-80
2021/11/18 11:33:43;;;;;;;18.88;7.32;;;;;;;;;;6240831;28;20033;-80
2021/11/18 11:36:53;;;;;;;16.48;7.10;;;;;;;;;;6203892;28;20053;-81
2021/11/18 11:40:06;;;;;;;15.35;6.35;;;;;;;;;;6228466;28;20041;-81
2021/11/18 11:43:23;;;;;;;13.85;6.28;;;;;;;;;;6243887;28;20128;-79
2021/11/18 11:47:14;;;;;;;15.80;6.60;;;;;;;;;;6241791;28;20087;-81
2021/11/18 11:50:15;;;;;;;17.15;6.63;;;;;;;;;;6167209;28;20055;-79
2021/11/18 11:53:55;;;;;;;17.00;6.30;;;;;;;;;;6151806;28;20062;-80
2021/11/18 11:57:23;;;;;;;23.23;8.25;;;;;;;;;;6168043;28;20252;-80
2021/11/18 12:00:55;;;;;;;12.20;7.05;;;;;;;;;;6199760;28;20137;-79
2021/11/18 12:04:05;;;;;;;15.35;7.00;;;;;;;;;;6242901;28;20044;-81
2021/11/18 12:07:31;;;;;;;17.90;7.20;;;;;;;;;;6242144;28;20057;-78
2021/11/18 12:10:42;;;;;;;14.18;5.75;;;;;;;;;;6242907;28;20109;-79
2021/11/18 12:14:15;;;;;;;15.23;6.35;;;;;;;;;;6242552;28;20068;-79
2021/11/18 12:17:25;;;;;;;14.35;5.70;;;;;;;;;;6210917;28;20065;-80
2021/11/18 12:20:30;;;;;;;15.73;6.90;;;;;;;;;;6242300;28;20068;-80
2021/11/18 12:23:58;;;;;;;13.98;5.85;;;;;;;;;;6249497;28;20042;-80
2021/11/18 12:27:00;;;;;;;13.60;5.80;;;;;;;;;;6218194;28;20217;-78
2021/11/18 12:30:16;;;;;;;19.35;6.63;;;;;;;;;;6221395;28;20503;-81
2021/11/18 12:33:17;;;;;;;12.00;5.50;;;;;;;;;;6245348;28;20053;-80
2021/11/18 12:36:37;;;;;;;13.57;5.97;;;;;;;;;;6242761;28;20531;-79
2021/11/18 12:39:50;;;;;;;16.65;6.65;;;;;;;;;;6218577;28;20049;-79
2021/11/18 12:42:52;;;;;;;14.35;6.25;;;;;;;;;;6241419;28;20485;-82
2021/11/18 12:46:12;;;;;;;14.43;5.93;;;;;;;;;;6221106;28;20068;-82
2021/11/18 12:49:18;;;;;;;17.27;6.82;;;;;;;;;;6242998;28;20049;-83
2021/11/18 12:52:41;;;;;;;12.68;6.18;;;;;;;;;;6219075;28;20088;-82
2021/11/18 12:56:09;;;;;;;19.80;8.85;;;;;;;;;;6218856;28;20129;-83
2021/11/18 12:59:11;;;;;;;16.52;7.80;;;;;;;;;;6214575;28;20188;-82
2021/11/18 13:02:28;;;;;;;14.07;6.90;;;;;;;;;;6218327;28;20041;-80
2021/11/18 13:05:30;;;;;;;14.90;6.25;;;;;;;;;;6214234;28;20043;-82
2021/11/18 13:08:41;;;;;;;12.55;6.35;;;;;;;;;;6215234;28;20499;-81
2021/11/18 13:11:49;;;;;;;14.82;5.43;;;;;;;;;;6216802;28;20472;-81
2021/11/18 13:15:10;;;;;;;11.40;5.15;;;;;;;;;;6221524;28;20048;-79
2021/11/18 13:18:28;;;;;;;13.60;5.40;;;;;;;;;;6232038;28;20541;-82
2021/11/18 13:21:49;;;;;;;20.98;5.97;;;;;;;;;;6211454;28;20133;-80
2021/11/18 13:24:53;;;;;;;14.15;5.90;;;;;;;;;;6217005;28;20096;-81
2021/11/18 13:28:00;;;;;;;18.25;5.43;;;;;;;;;;6217940;28;20077;-82
2021/11/18 13:31:03;;;;;;;13.90;5.07;;;;;;;;;;6227588;28;20053;-82
2021/11/18 13:34:34;;;;;;;12.63;5.20;;;;;;;;;;6241620;28;20064;-81
2021/11/18 13:37:43;;;;;;;12.10;5.07;;;;;;;;;;6207117;28;20581;-79
2021/11/18 13:41:05;;;;;;;12.93;4.60;;;;;;;;;;6251187;28;20133;-80
2021/11/18 13:44:08;;;;;;;14.98;5.05;;;;;;;;;;6216815;28;20149;-80
2021/11/18 13:47:36;;;;;;;12.30;4.43;;;;;;;;;;6232632;28;20041;-81
2021/11/18 13:50:50;;;;;;;11.75;4.47;;;;;;;;;;6216664;28;20462;-82
2021/11/18 13:53:55;;;;;;;12.63;4.28;;;;;;;;;;6231546;28;20045;-81
2021/11/18 13:57:29;;;;;;;13.80;4.80;;;;;;;;;;6215528;28;20069;-81
2021/11/18 14:00:34;;;;;;;11.15;5.35;;;;;;;;;;6215970;28;20050;-80
2021/11/18 14:03:49;;;;;;;17.38;6.38;;;;;;;;;;6216468;28;20050;-80
2021/11/18 14:06:54;;;;;;;12.90;4.28;;;;;;;;;;6217247;28;20103;-80
2021/11/18 14:10:06;;;;;;;12.68;4.38;;;;;;;;;;6234135;28;20153;-81
2021/11/18 14:13:39;;;;;;;14.52;4.78;;;;;;;;;;6208055;28;20054;-79
2021/11/18 14:16:42;;;;;;;9.57;4.07;;;;;;;;;;6213079;28;20048;-79
2021/11/18 14:20:23;;;;;;;15.90;4.47;;;;;;;;;;6231245;28;20483;-79
2021/11/18 14:23:33;;;;;;;10.13;3.67;;;;;;;;;;6236974;28;20065;-81
2021/11/18 14:27:01;;;;;;;9.40;3.95;;;;;;;;;;6236354;28;20130;-79
2021/11/18 14:30:10;;;;;;;10.27;3.60;;;;;;;;;;6212605;28;20049;-80
2021/11/18 14:33:33;;;;;;;12.52;3.83;;;;;;;;;;6238329;28;20033;-79
2021/11/18 14:36:42;;;;;;;14.85;4.13;;;;;;;;;;6229760;28;20668;-79
2021/11/18 14:39:49;;;;;;;9.85;3.35;;;;;;;;;;6228581;28;20115;-79
2021/11/18 14:42:55;;;;;;;9.55;4.35;;;;;;;;;;6229178;28;20049;-78
2021/11/18 14:46:13;;;;;;;15.00;4.43;;;;;;;;;;6229020;28;20054;-77
2021/11/18 14:49:31;;;;;;;11.07;3.95;;;;;;;;;;6220679;28;20037;-77
2021/11/18 14:52:56;;;;;;;13.35;4.47;;;;;;;;;;6218949;28;20080;-78
2021/11/18 14:56:28;;;;;;;9.65;3.72;;;;;;;;;;6223095;28;20041;-78
2021/11/18 14:59:30;;;;;;;10.70;3.67;;;;;;;;;;6204962;28;20053;-80
2021/11/18 15:02:31;;;;;;;15.05;4.50;;;;;;;;;;6221730;28;20077;-77
2021/11/18 15:05:33;;;;;;;14.07;4.55;;;;;;;;;;6220856;28;20423;-78
2021/11/18 15:08:35;;;;;;;11.25;3.80;;;;;;;;;;6227767;28;20034;-78
2021/11/18 15:11:39;;;;;;;11.15;4.03;;;;;;;;;;6221966;28;20052;-78
2021/11/18 15:14:43;;;;;;;11.13;3.22;;;;;;;;;;6201384;28;20042;-78
2021/11/18 15:17:49;;;;;;;8.05;3.25;;;;;;;;;;6240646;28;20049;-81
2021/11/18 15:20:52;;;;;;;15.32;4.63;;;;;;;;;;6237947;28;20059;-79
2021/11/18 15:23:54;;;;;;;11.35;3.83;;;;;;;;;;6239492;28;20052;-79
2021/11/18 15:26:57;;;;;;;15.20;4.57;;;;;;;;;;6239476;28;20041;-80
2021/11/18 15:29:59;;;;;;;9.40;3.85;;;;;;;;;;6236675;28;20057;-80
2021/11/18 15:33:01;;;;;;;11.93;4.57;;;;;;;;;;6236956;28;20113;-80
2021/11/18 15:36:05;;;;;;;11.87;4.20;;;;;;;;;;6236632;28;20045;-80
2021/11/18 15:39:16;;;;;;;14.68;4.00;;;;;;;;;;6236067;28;20136;-78
2021/11/18 15:42:21;;;;;;;11.27;3.83;;;;;;;;;;6237880;28;20140;-78
2021/11/18 15:45:25;;;;;;;8.70;3.97;;;;;;;;;;6218967;28;20046;-81
2021/11/18 15:48:26;;;;;;;10.93;4.18;;;;;;;;;;6237001;28;20097;-78
2021/11/18 15:51:30;;;;;;;11.88;4.75;;;;;;;;;;6222225;28;20247;-79
2021/11/18 15:54:32;;;;;;;11.60;4.30;;;;;;;;;;6239450;28;20456;-82
2021/11/18 15:57:35;;;;;;;15.40;4.60;;;;;;;;;;6241313;28;20042;-81
2021/11/18 16:00:39;;;;;;;13.27;4.88;;;;;;;;;;6227442;28;20121;-82
2021/11/18 16:03:42;;;;;;;16.60;4.68;;;;;;;;;;6232883;28;20049;-80
2021/11/18 16:06:44;;;;;;;9.57;4.55;;;;;;;;;;6231096;28;20053;-82
2021/11/18 16:09:48;;;;;;;13.23;4.82;;;;;;;;;;6236484;28;20057;-78
2021/11/18 16:12:55;;;;;;;13.68;4.22;;;;;;;;;;6220384;28;20511;-78
2021/11/18 16:15:57;;;;;;;13.43;4.78;;;;;;;;;;6236935;28;20761;-79
2021/11/18 16:19:00;;;;;;;14.98;5.03;;;;;;;;;;6244334;28;20559;-81
2021/11/18 16:22:06;;;;;;;19.60;5.75;;;;;;;;;;6249994;28;20108;-80
2021/11/18 16:25:11;;;;;;;13.90;6.00;;;;;;;;;;6243509;28;20049;-80
2021/11/18 16:28:14;;;;;;;9.40;4.35;;;;;;;;;;6242880;28;20049;-82
2021/11/18 16:31:17;;;;;;;13.95;5.80;;;;;;;;;;6224917;28;20152;-80
2021/11/18 16:34:21;;;;;;;11.80;5.40;;;;;;;;;;6243693;28;20486;-78
2021/11/18 16:37:33;;;;;;;13.07;5.45;;;;;;;;;;6225627;28;20056;-80
2021/11/18 16:40:40;;;;;;;14.60;5.90;;;;;;;;;;6244612;28;20119;-79
2021/11/18 16:43:43;;;;;;;13.88;5.15;;;;;;;;;;6241988;28;20053;-78
2021/11/18 16:46:46;;;;;;;14.25;5.70;;;;;;;;;;6231161;28;20200;-82
2021/11/18 16:49:48;;;;;;;;;;;;;;;;;;6249104;28;20049;-80
2021/11/18 16:52:53;;;;;;;15.02;5.80;;;;;;;;;;6262391;28;19972;-81
2021/11/18 16:55:56;;;;;;;14.50;6.18;;;;;;;;;;6231510;28;20045;-82
2021/11/18 16:59:00;;;;;;;13.57;6.22;;;;;;;;;;6226173;28;20072;-80
2021/11/18 17:02:15;;;;;;;18.27;6.90;;;;;;;;;;6227549;28;20624;-79
2021/11/18 17:05:17;;;;;;;15.88;7.18;;;;;;;;;;6250884;28;20072;-83
2021/11/18 17:08:20;;;;;;;21.02;7.55;;;;;;;;;;6248248;28;20132;-80
2021/11/18 17:11:28;;;;;;;23.58;7.60;;;;;;;;;;6199303;28;20051;-83
2021/11/18 17:14:31;;;;;;;21.20;8.45;;;;;;;;;;6229220;28;20179;-80
2021/11/18 17:17:32;;;;;;;16.27;6.50;;;;;;;;;;6247354;28;20450;-81
2021/11/18 17:20:35;;;;;;;16.77;7.50;;;;;;;;;;6246259;28;20063;-78
2021/11/18 17:23:38;;;;;;;22.83;7.40;;;;;;;;;;6234484;28;20141;-80
2021/11/18 17:26:41;;;;;;;;;;;;;;;;;;6212604;28;20056;-79
2021/11/18 17:29:53;;;;;;;15.20;6.55;;;;;;;;;;6150913;28;106945;-79
2021/11/18 17:32:55;;;;;;;15.15;6.50;;;;;;;;;;6214495;28;20597;-79
2021/11/18 17:36:07;;;;;;;15.07;6.50;;;;;;;;;;6223048;28;20413;-79
2021/11/18 17:39:34;;;;;;;13.50;6.28;;;;;;;;;;6206711;28;20054;-80
2021/11/18 17:42:36;;;;;;;14.43;6.20;;;;;;;;;;6222307;28;20133;-81
2021/11/18 17:45:51;;;;;;;13.40;6.55;;;;;;;;;;6226896;28;20066;-82
2021/11/18 17:48:53;;;;;;;13.65;5.25;;;;;;;;;;6220645;28;20050;-81
2021/11/18 17:51:57;;;;;;;17.80;6.13;;;;;;;;;;6226092;28;20061;-80
2021/11/18 17:55:01;;;;;;;16.27;6.15;;;;;;;;;;6217895;28;20456;-79
2021/11/18 17:58:05;;;;;;;13.35;5.80;;;;;;;;;;6185159;28;20451;-78
2021/11/18 18:01:12;;;;;;;18.27;6.35;;;;;;;;;;6214668;28;20073;-80
2021/11/18 18:04:15;;;;;;;14.50;6.18;;;;;;;;;;6206295;28;20046;-80
2021/11/18 18:07:18;;;;;;;16.58;6.18;;;;;;;;;;6228366;28;20052;-79
2021/11/18 18:10:20;;;;;;;16.15;6.40;;;;;;;;;;6232522;28;20123;-81
2021/11/18 18:13:22;;;;;;;17.25;5.95;;;;;;;;;;6215072;28;20117;-78
2021/11/18 18:16:34;;;;;;;13.25;6.20;;;;;;;;;;6223555;28;20052;-79
2021/11/18 18:19:36;;;;;;;16.35;6.15;;;;;;;;;;6212206;28;20106;-79
2021/11/18 18:22:38;;;;;;;13.95;6.10;;;;;;;;;;6221256;28;20106;-80
2021/11/18 18:25:44;;;;;;;18.33;6.70;;;;;;;;;;6205200;28;20062;-78
2021/11/18 18:28:49;;;;;;;13.65;6.20;;;;;;;;;;6206908;28;20069;-79
2021/11/18 18:31:54;;;;;;;13.90;6.13;;;;;;;;;;6194547;28;20122;-77